sensor_id;sensor_type;location;lat;lon;timestamp;pressure;altitude;pressure_sealevel;temperature;humidity
10466;BME280;5280;42.600;23.556;2023-02-22T00:01:09;93405.56;;;8.07;63.10
10466;BME280;5280;42.600;23.556;2023-02-22T00:03:48;93414.13;;;7.98;63.29
10466;BME280;5280;42.600;23.556;2023-02-22T00:06:19;93410.22;;;8.04;61.16
10466;BME280;5280;42.600;23.556;2023-02-22T00:08:49;93400.44;;;7.93;60.04
10466;BME280;5280;42.600;23.556;2023-02-22T00:11:17;93414.75;;;8.14;60.79
10466;BME280;5280;42.600;23.556;2023-02-22T00:13:45;93398.94;;;8.14;61.29
10466;BME280;5280;42.600;23.556;2023-02-22T00:16:15;93402.09;;;8.19;59.40
10466;BME280;5280;42.600;23.556;2023-02-22T00:18:43;93408.94;;;8.22;59.85
10466;BME280;5280;42.600;23.556;2023-02-22T00:21:11;93406.72;;;8.29;61.25
10466;BME280;5280;42.600;23.556;2023-02-22T00:23:42;93347.84;;;7.81;60.24
10466;BME280;5280;42.600;23.556;2023-02-22T00:26:11;93408.34;;;8.31;59.65
10466;BME280;5280;42.600;23.556;2023-02-22T00:28:43;93403.09;;;8.31;60.32
10466;BME280;5280;42.600;23.556;2023-02-22T00:31:12;93402.09;;;8.32;60.44
10466;BME280;5280;42.600;23.556;2023-02-22T00:33:39;93401.69;;;8.26;59.43
10466;BME280;5280;42.600;23.556;2023-02-22T00:36:08;93390.13;;;8.15;59.59
10466;BME280;5280;42.600;23.556;2023-02-22T00:38:35;93393.88;;;8.24;61.04
10466;BME280;5280;42.600;23.556;2023-02-22T00:41:03;93404.00;;;8.17;60.83
10466;BME280;5280;42.600;23.556;2023-02-22T00:43:30;93394.63;;;8.13;60.55
10466;BME280;5280;42.600;23.556;2023-02-22T00:45:57;93396.66;;;8.10;60.86
10466;BME280;5280;42.600;23.556;2023-02-22T00:48:24;93374.13;;;7.93;61.31
10466;BME280;5280;42.600;23.556;2023-02-22T00:50:51;93395.38;;;8.03;61.13
10466;BME280;5280;42.600;23.556;2023-02-22T00:53:20;93396.13;;;8.05;60.12
10466;BME280;5280;42.600;23.556;2023-02-22T00:55:47;93391.38;;;7.97;61.06
10466;BME280;5280;42.600;23.556;2023-02-22T00:58:16;93392.88;;;8.01;61.15
10466;BME280;5280;42.600;23.556;2023-02-22T01:00:43;93325.94;;;7.67;60.36
10466;BME280;5280;42.600;23.556;2023-02-22T01:03:12;93378.22;;;7.85;60.69
10466;BME280;5280;42.600;23.556;2023-02-22T01:05:39;93379.59;;;7.77;61.07
10466;BME280;5280;42.600;23.556;2023-02-22T01:08:07;93377.06;;;7.89;61.36
10466;BME280;5280;42.600;23.556;2023-02-22T01:10:35;93367.19;;;7.79;61.38
10466;BME280;5280;42.600;23.556;2023-02-22T01:13:03;93375.63;;;7.72;61.55
10466;BME280;5280;42.600;23.556;2023-02-22T01:15:35;93369.50;;;7.71;61.75
10466;BME280;5280;42.600;23.556;2023-02-22T01:18:03;93344.88;;;7.60;62.49
10466;BME280;5280;42.600;23.556;2023-02-22T01:20:31;93368.84;;;7.68;62.71
10466;BME280;5280;42.600;23.556;2023-02-22T01:23:00;93358.13;;;7.58;64.27
10466;BME280;5280;42.600;23.556;2023-02-22T01:25:34;93365.81;;;7.49;64.32
10466;BME280;5280;42.600;23.556;2023-02-22T01:28:03;93324.13;;;7.17;64.38
10466;BME280;5280;42.600;23.556;2023-02-22T01:30:32;93347.81;;;7.30;65.15
10466;BME280;5280;42.600;23.556;2023-02-22T01:33:02;93337.25;;;7.17;65.26
10466;BME280;5280;42.600;23.556;2023-02-22T01:35:32;93356.00;;;7.38;65.43
10466;BME280;5280;42.600;23.556;2023-02-22T01:37:59;93355.47;;;7.33;65.13
10466;BME280;5280;42.600;23.556;2023-02-22T01:40:28;93357.38;;;7.31;66.19
10466;BME280;5280;42.600;23.556;2023-02-22T01:42:58;93346.97;;;7.17;66.38
10466;BME280;5280;42.600;23.556;2023-02-22T01:45:57;93351.25;;;7.18;66.67
10466;BME280;5280;42.600;23.556;2023-02-22T01:48:34;93317.69;;;6.96;66.39
10466;BME280;5280;42.600;23.556;2023-02-22T01:51:09;93341.88;;;7.14;66.95
10466;BME280;5280;42.600;23.556;2023-02-22T01:53:40;93349.59;;;7.17;66.39
10466;BME280;5280;42.600;23.556;2023-02-22T01:56:09;93342.81;;;7.00;67.00
10466;BME280;5280;42.600;23.556;2023-02-22T01:58:39;93361.66;;;7.07;65.66
10466;BME280;5280;42.600;23.556;2023-02-22T02:01:07;93344.50;;;7.14;66.62
10466;BME280;5280;42.600;23.556;2023-02-22T02:03:38;93346.72;;;7.07;66.90
10466;BME280;5280;42.600;23.556;2023-02-22T02:06:08;93344.59;;;7.00;68.17
10466;BME280;5280;42.600;23.556;2023-02-22T02:08:44;93336.63;;;7.01;66.82
10466;BME280;5280;42.600;23.556;2023-02-22T02:11:18;93352.63;;;7.11;66.52
10466;BME280;5280;42.600;23.556;2023-02-22T02:13:48;93362.91;;;7.14;66.36
10466;BME280;5280;42.600;23.556;2023-02-22T02:16:15;93344.19;;;7.06;64.87
10466;BME280;5280;42.600;23.556;2023-02-22T02:18:43;93357.66;;;7.14;62.94
10466;BME280;5280;42.600;23.556;2023-02-22T02:21:34;93356.19;;;7.22;64.31
10466;BME280;5280;42.600;23.556;2023-02-22T02:27:11;93347.78;;;7.17;64.52
10466;BME280;5280;42.600;23.556;2023-02-22T02:33:00;93356.56;;;7.04;67.12
10466;BME280;5280;42.600;23.556;2023-02-22T02:35:38;93362.97;;;7.00;66.35
10466;BME280;5280;42.600;23.556;2023-02-22T02:38:15;93375.91;;;7.03;66.18
10466;BME280;5280;42.600;23.556;2023-02-22T02:40:50;93366.44;;;7.00;66.74
10466;BME280;5280;42.600;23.556;2023-02-22T02:43:24;93367.38;;;6.99;66.74
10466;BME280;5280;42.600;23.556;2023-02-22T02:45:55;93363.91;;;6.99;66.57
10466;BME280;5280;42.600;23.556;2023-02-22T02:48:27;93367.38;;;6.99;66.96
10466;BME280;5280;42.600;23.556;2023-02-22T02:50:56;93370.09;;;6.98;66.81
10466;BME280;5280;42.600;23.556;2023-02-22T02:53:27;93359.91;;;6.93;66.91
10466;BME280;5280;42.600;23.556;2023-02-22T02:55:57;93362.84;;;6.88;67.10
10466;BME280;5280;42.600;23.556;2023-02-22T02:58:24;93363.69;;;6.89;66.31
10466;BME280;5280;42.600;23.556;2023-02-22T03:00:53;93355.66;;;6.78;66.79
10466;BME280;5280;42.600;23.556;2023-02-22T03:03:44;93368.25;;;6.73;67.71
10466;BME280;5280;42.600;23.556;2023-02-22T03:09:21;93290.25;;;6.21;67.34
10466;BME280;5280;42.600;23.556;2023-02-22T03:11:57;93362.25;;;6.44;68.70
10466;BME280;5280;42.600;23.556;2023-02-22T03:14:34;93375.44;;;6.57;69.23
10466;BME280;5280;42.600;23.556;2023-02-22T03:17:11;93363.94;;;6.45;69.56
10466;BME280;5280;42.600;23.556;2023-02-22T03:19:44;93380.56;;;6.58;69.10
10466;BME280;5280;42.600;23.556;2023-02-22T03:22:16;93346.44;;;6.31;69.33
10466;BME280;5280;42.600;23.556;2023-02-22T03:24:49;93383.50;;;6.54;69.42
10466;BME280;5280;42.600;23.556;2023-02-22T03:27:24;93367.31;;;6.47;69.12
10466;BME280;5280;42.600;23.556;2023-02-22T03:30:00;93378.25;;;6.54;69.98
10466;BME280;5280;42.600;23.556;2023-02-22T03:32:34;93384.94;;;6.45;70.13
10466;BME280;5280;42.600;23.556;2023-02-22T03:35:07;93382.47;;;6.56;69.89
10466;BME280;5280;42.600;23.556;2023-02-22T03:37:39;93338.78;;;6.14;70.59
10466;BME280;5280;42.600;23.556;2023-02-22T03:40:11;93370.88;;;6.46;70.55
10466;BME280;5280;42.600;23.556;2023-02-22T03:42:44;93381.94;;;6.51;70.73
10466;BME280;5280;42.600;23.556;2023-02-22T03:45:14;93334.38;;;6.15;70.41
10466;BME280;5280;42.600;23.556;2023-02-22T03:47:45;93364.44;;;6.37;70.76
10466;BME280;5280;42.600;23.556;2023-02-22T03:50:18;93324.66;;;6.17;70.59
10466;BME280;5280;42.600;23.556;2023-02-22T03:52:46;93381.81;;;6.53;71.05
10466;BME280;5280;42.600;23.556;2023-02-22T03:55:14;93381.16;;;6.49;71.21
10466;BME280;5280;42.600;23.556;2023-02-22T03:57:45;93363.59;;;6.37;70.88
10466;BME280;5280;42.600;23.556;2023-02-22T04:00:18;93281.78;;;5.89;71.59
10466;BME280;5280;42.600;23.556;2023-02-22T04:02:46;93378.38;;;6.52;71.11
10466;BME280;5280;42.600;23.556;2023-02-22T04:05:13;93378.16;;;6.55;70.90
10466;BME280;5280;42.600;23.556;2023-02-22T04:07:42;93381.16;;;6.49;71.56
10466;BME280;5280;42.600;23.556;2023-02-22T04:10:10;93316.78;;;6.17;71.59
10466;BME280;5280;42.600;23.556;2023-02-22T04:12:37;93357.25;;;6.54;71.71
10466;BME280;5280;42.600;23.556;2023-02-22T04:15:06;93373.66;;;6.57;72.18
10466;BME280;5280;42.600;23.556;2023-02-22T04:17:33;93368.59;;;6.54;72.27
10466;BME280;5280;42.600;23.556;2023-02-22T04:19:59;93368.84;;;6.64;72.19
10466;BME280;5280;42.600;23.556;2023-02-22T04:22:26;93361.47;;;6.56;71.41
10466;BME280;5280;42.600;23.556;2023-02-22T04:24:54;93375.22;;;6.60;72.60
10466;BME280;5280;42.600;23.556;2023-02-22T04:27:21;93342.94;;;6.45;72.00
10466;BME280;5280;42.600;23.556;2023-02-22T04:29:48;93372.22;;;6.66;70.46
10466;BME280;5280;42.600;23.556;2023-02-22T04:32:15;93372.00;;;6.69;72.25
10466;BME280;5280;42.600;23.556;2023-02-22T04:34:42;93363.97;;;6.72;71.73
10466;BME280;5280;42.600;23.556;2023-02-22T04:37:11;93379.81;;;6.70;72.00
10466;BME280;5280;42.600;23.556;2023-02-22T04:39:37;93367.44;;;6.72;71.62
10466;BME280;5280;42.600;23.556;2023-02-22T04:42:05;93372.47;;;6.75;70.97
10466;BME280;5280;42.600;23.556;2023-02-22T04:44:32;93341.44;;;6.41;71.04
10466;BME280;5280;42.600;23.556;2023-02-22T04:46:59;93371.06;;;6.70;71.34
10466;BME280;5280;42.600;23.556;2023-02-22T04:49:26;93332.81;;;6.39;71.57
10466;BME280;5280;42.600;23.556;2023-02-22T04:51:53;93373.78;;;6.68;71.14
10466;BME280;5280;42.600;23.556;2023-02-22T04:54:20;93381.25;;;6.62;72.10
10466;BME280;5280;42.600;23.556;2023-02-22T04:56:47;93350.22;;;6.54;72.01
10466;BME280;5280;42.600;23.556;2023-02-22T04:59:15;93369.78;;;6.63;71.03
10466;BME280;5280;42.600;23.556;2023-02-22T05:01:41;93381.88;;;6.65;68.84
10466;BME280;5280;42.600;23.556;2023-02-22T05:04:08;93375.56;;;6.68;69.56
10466;BME280;5280;42.600;23.556;2023-02-22T05:06:35;93372.13;;;6.67;70.84
10466;BME280;5280;42.600;23.556;2023-02-22T05:09:02;93383.13;;;6.60;71.01
10466;BME280;5280;42.600;23.556;2023-02-22T05:11:29;93381.41;;;6.59;70.93
10466;BME280;5280;42.600;23.556;2023-02-22T05:13:56;93382.34;;;6.58;70.96
10466;BME280;5280;42.600;23.556;2023-02-22T05:16:24;93318.94;;;6.10;70.75
10466;BME280;5280;42.600;23.556;2023-02-22T05:18:50;93391.25;;;6.42;71.83
10466;BME280;5280;42.600;23.556;2023-02-22T05:21:23;93390.38;;;6.42;71.42
10466;BME280;5280;42.600;23.556;2023-02-22T05:23:49;93388.69;;;6.41;70.62
10466;BME280;5280;42.600;23.556;2023-02-22T05:26:16;93394.31;;;6.35;70.49
10466;BME280;5280;42.600;23.556;2023-02-22T05:28:43;93388.44;;;6.31;71.21
10466;BME280;5280;42.600;23.556;2023-02-22T05:31:10;93393.00;;;6.28;71.78
10466;BME280;5280;42.600;23.556;2023-02-22T05:33:38;93409.53;;;6.16;72.49
10466;BME280;5280;42.600;23.556;2023-02-22T05:36:07;93401.75;;;6.14;72.68
10466;BME280;5280;42.600;23.556;2023-02-22T05:38:35;93404.94;;;6.05;72.19
10466;BME280;5280;42.600;23.556;2023-02-22T05:41:07;93409.75;;;6.13;72.23
10466;BME280;5280;42.600;23.556;2023-02-22T05:43:34;93408.13;;;6.10;71.87
10466;BME280;5280;42.600;23.556;2023-02-22T05:46:01;93426.78;;;6.05;71.88
10466;BME280;5280;42.600;23.556;2023-02-22T05:48:27;93421.53;;;6.05;72.51
10466;BME280;5280;42.600;23.556;2023-02-22T05:50:57;93424.16;;;6.05;72.76
10466;BME280;5280;42.600;23.556;2023-02-22T05:53:24;93411.69;;;5.95;73.51
10466;BME280;5280;42.600;23.556;2023-02-22T05:55:51;93415.94;;;5.97;73.76
10466;BME280;5280;42.600;23.556;2023-02-22T05:58:17;93403.06;;;5.93;74.20
10466;BME280;5280;42.600;23.556;2023-02-22T06:00:44;93417.13;;;6.06;74.27
10466;BME280;5280;42.600;23.556;2023-02-22T06:03:11;93413.19;;;5.99;75.17
10466;BME280;5280;42.600;23.556;2023-02-22T06:05:38;93388.25;;;5.78;76.26
10466;BME280;5280;42.600;23.556;2023-02-22T06:08:07;93417.50;;;6.00;77.07
10466;BME280;5280;42.600;23.556;2023-02-22T06:10:34;93423.50;;;6.02;77.63
10466;BME280;5280;42.600;23.556;2023-02-22T06:13:02;93428.47;;;6.07;78.46
10466;BME280;5280;42.600;23.556;2023-02-22T06:15:29;93423.88;;;6.10;79.17
10466;BME280;5280;42.600;23.556;2023-02-22T06:18:00;93420.03;;;6.16;78.94
10466;BME280;5280;42.600;23.556;2023-02-22T06:20:29;93407.28;;;6.10;79.02
10466;BME280;5280;42.600;23.556;2023-02-22T06:22:58;93420.09;;;6.28;77.59
10466;BME280;5280;42.600;23.556;2023-02-22T06:25:27;93428.25;;;6.24;77.29
10466;BME280;5280;42.600;23.556;2023-02-22T06:27:56;93410.81;;;6.23;75.07
10466;BME280;5280;42.600;23.556;2023-02-22T06:30:25;93435.66;;;6.45;73.35
10466;BME280;5280;42.600;23.556;2023-02-22T06:32:52;93435.06;;;6.55;70.72
10466;BME280;5280;42.600;23.556;2023-02-22T06:35:22;93436.09;;;6.66;70.16
10466;BME280;5280;42.600;23.556;2023-02-22T06:37:48;93386.38;;;6.36;70.91
10466;BME280;5280;42.600;23.556;2023-02-22T06:40:18;93437.19;;;6.76;73.06
10466;BME280;5280;42.600;23.556;2023-02-22T06:42:47;93414.22;;;6.66;73.38
10466;BME280;5280;42.600;23.556;2023-02-22T06:45:15;93432.03;;;6.75;74.61
10466;BME280;5280;42.600;23.556;2023-02-22T06:47:42;93426.53;;;6.65;74.39
10466;BME280;5280;42.600;23.556;2023-02-22T06:50:18;93436.97;;;6.79;70.71
10466;BME280;5280;42.600;23.556;2023-02-22T06:52:45;93438.06;;;6.89;70.47
10466;BME280;5280;42.600;23.556;2023-02-22T06:55:21;93404.91;;;6.74;67.51
10466;BME280;5280;42.600;23.556;2023-02-22T06:57:49;93439.38;;;6.97;67.18
10466;BME280;5280;42.600;23.556;2023-02-22T07:00:18;93425.19;;;6.99;66.85
10466;BME280;5280;42.600;23.556;2023-02-22T07:02:45;93411.34;;;6.83;68.27
10466;BME280;5280;42.600;23.556;2023-02-22T07:05:13;93450.31;;;7.03;67.97
10466;BME280;5280;42.600;23.556;2023-02-22T07:07:41;93439.31;;;7.11;67.18
10466;BME280;5280;42.600;23.556;2023-02-22T07:10:17;93447.81;;;7.02;65.79
10466;BME280;5280;42.600;23.556;2023-02-22T07:12:44;93446.16;;;7.13;67.43
10466;BME280;5280;42.600;23.556;2023-02-22T07:15:12;93444.06;;;7.18;67.06
10466;BME280;5280;42.600;23.556;2023-02-22T07:17:39;93445.56;;;7.22;67.17
10466;BME280;5280;42.600;23.556;2023-02-22T07:20:07;93442.44;;;7.30;66.83
10466;BME280;5280;42.600;23.556;2023-02-22T07:22:36;93422.00;;;7.21;66.26
10466;BME280;5280;42.600;23.556;2023-02-22T07:25:04;93435.47;;;7.29;65.12
10466;BME280;5280;42.600;23.556;2023-02-22T07:27:31;93438.88;;;7.44;64.46
10466;BME280;5280;42.600;23.556;2023-02-22T07:29:57;93442.50;;;7.55;64.63
10466;BME280;5280;42.600;23.556;2023-02-22T07:32:26;93424.28;;;7.52;64.61
10466;BME280;5280;42.600;23.556;2023-02-22T07:34:52;93436.41;;;7.67;66.50
10466;BME280;5280;42.600;23.556;2023-02-22T07:37:19;93438.75;;;7.72;65.36
10466;BME280;5280;42.600;23.556;2023-02-22T07:39:46;93438.97;;;7.82;64.10
10466;BME280;5280;42.600;23.556;2023-02-22T07:42:13;93426.97;;;7.90;65.42
10466;BME280;5280;42.600;23.556;2023-02-22T07:44:40;93422.94;;;7.97;65.44
10466;BME280;5280;42.600;23.556;2023-02-22T07:47:07;93433.72;;;8.07;65.13
10466;BME280;5280;42.600;23.556;2023-02-22T07:49:38;93423.25;;;8.18;64.79
10466;BME280;5280;42.600;23.556;2023-02-22T07:52:05;93426.31;;;8.25;63.98
10466;BME280;5280;42.600;23.556;2023-02-22T07:54:32;93430.56;;;8.40;63.26
10466;BME280;5280;42.600;23.556;2023-02-22T07:56:59;93426.50;;;8.59;62.95
10466;BME280;5280;42.600;23.556;2023-02-22T07:59:27;93431.41;;;8.77;62.84
10466;BME280;5280;42.600;23.556;2023-02-22T08:01:54;93395.25;;;8.79;61.06
10466;BME280;5280;42.600;23.556;2023-02-22T08:04:21;93416.53;;;9.12;60.66
10466;BME280;5280;42.600;23.556;2023-02-22T08:06:49;93423.09;;;9.30;60.25
10466;BME280;5280;42.600;23.556;2023-02-22T08:09:16;93415.09;;;9.43;57.90
10466;BME280;5280;42.600;23.556;2023-02-22T08:11:43;93418.91;;;9.63;57.03
10466;BME280;5280;42.600;23.556;2023-02-22T08:14:10;93424.22;;;9.74;57.15
10466;BME280;5280;42.600;23.556;2023-02-22T08:16:37;93425.94;;;9.86;55.98
10466;BME280;5280;42.600;23.556;2023-02-22T08:19:04;93413.56;;;9.75;56.06
10466;BME280;5280;42.600;23.556;2023-02-22T08:21:31;93423.78;;;9.91;55.86
10466;BME280;5280;42.600;23.556;2023-02-22T08:23:59;93422.47;;;9.97;56.03
10466;BME280;5280;42.600;23.556;2023-02-22T08:26:26;93428.50;;;10.10;55.10
10466;BME280;5280;42.600;23.556;2023-02-22T08:28:53;93425.91;;;10.21;55.17
10466;BME280;5280;42.600;23.556;2023-02-22T08:31:21;93424.09;;;10.32;53.98
10466;BME280;5280;42.600;23.556;2023-02-22T08:33:48;93423.88;;;10.47;53.66
10466;BME280;5280;42.600;23.556;2023-02-22T08:36:15;93415.84;;;10.59;54.13
10466;BME280;5280;42.600;23.556;2023-02-22T08:38:43;93414.25;;;10.68;53.82
10466;BME280;5280;42.600;23.556;2023-02-22T08:41:11;93355.31;;;10.45;53.40
10466;BME280;5280;42.600;23.556;2023-02-22T08:43:38;93413.63;;;10.87;53.59
10466;BME280;5280;42.600;23.556;2023-02-22T08:46:04;93407.72;;;11.05;54.18
10466;BME280;5280;42.600;23.556;2023-02-22T08:48:31;93403.69;;;11.22;52.65
10466;BME280;5280;42.600;23.556;2023-02-22T08:50:58;93405.69;;;11.41;52.15
10466;BME280;5280;42.600;23.556;2023-02-22T08:53:25;93408.25;;;11.63;51.17
10466;BME280;5280;42.600;23.556;2023-02-22T08:55:52;93407.47;;;11.72;50.96
10466;BME280;5280;42.600;23.556;2023-02-22T08:58:20;93405.41;;;11.87;51.26
10466;BME280;5280;42.600;23.556;2023-02-22T09:00:47;93397.06;;;11.91;49.88
10466;BME280;5280;42.600;23.556;2023-02-22T09:03:14;93407.94;;;12.09;48.98
10466;BME280;5280;42.600;23.556;2023-02-22T09:05:41;93352.44;;;11.87;49.05
10466;BME280;5280;42.600;23.556;2023-02-22T09:08:08;93404.16;;;12.32;49.15
10466;BME280;5280;42.600;23.556;2023-02-22T09:10:35;93411.78;;;12.56;48.40
10466;BME280;5280;42.600;23.556;2023-02-22T09:13:03;93386.97;;;12.57;48.91
10466;BME280;5280;42.600;23.556;2023-02-22T09:15:32;93403.34;;;12.72;49.15
10466;BME280;5280;42.600;23.556;2023-02-22T09:18:03;93402.84;;;12.87;48.48
10466;BME280;5280;42.600;23.556;2023-02-22T09:20:30;93396.75;;;12.97;46.99
10466;BME280;5280;42.600;23.556;2023-02-22T09:22:57;93397.34;;;13.10;47.51
10466;BME280;5280;42.600;23.556;2023-02-22T09:25:23;93395.84;;;13.17;46.89
10466;BME280;5280;42.600;23.556;2023-02-22T09:27:52;93393.50;;;13.33;45.33
10466;BME280;5280;42.600;23.556;2023-02-22T09:30:22;93390.44;;;13.38;46.88
10466;BME280;5280;42.600;23.556;2023-02-22T09:32:52;93389.31;;;13.40;46.39
10466;BME280;5280;42.600;23.556;2023-02-22T09:35:20;93382.63;;;13.55;46.02
10466;BME280;5280;42.600;23.556;2023-02-22T09:37:54;93388.75;;;13.65;45.94
10466;BME280;5280;42.600;23.556;2023-02-22T09:43:08;93381.78;;;13.84;45.31
10466;BME280;5280;42.600;23.556;2023-02-22T09:45:49;93381.91;;;13.92;43.93
10466;BME280;5280;42.600;23.556;2023-02-22T09:48:21;93376.44;;;14.03;43.94
10466;BME280;5280;42.600;23.556;2023-02-22T09:50:51;93364.00;;;14.13;44.24
10466;BME280;5280;42.600;23.556;2023-02-22T09:53:22;93366.66;;;14.13;43.39
10466;BME280;5280;42.600;23.556;2023-02-22T09:55:58;93364.91;;;14.31;44.26
10466;BME280;5280;42.600;23.556;2023-02-22T09:58:31;93367.75;;;14.39;43.32
10466;BME280;5280;42.600;23.556;2023-02-22T10:01:07;93359.47;;;14.42;41.93
10466;BME280;5280;42.600;23.556;2023-02-22T10:03:48;93349.78;;;14.51;41.71
10466;BME280;5280;42.600;23.556;2023-02-22T10:06:21;93352.56;;;14.59;42.30
10466;BME280;5280;42.600;23.556;2023-02-22T10:08:50;93354.91;;;14.62;41.50
10466;BME280;5280;42.600;23.556;2023-02-22T10:11:29;93341.69;;;14.70;42.46
10466;BME280;5280;42.600;23.556;2023-02-22T10:14:10;93343.13;;;14.74;42.46
10466;BME280;5280;42.600;23.556;2023-02-22T10:16:47;93316.25;;;14.68;41.22
10466;BME280;5280;42.600;23.556;2023-02-22T10:19:27;93338.81;;;14.91;41.17
10466;BME280;5280;42.600;23.556;2023-02-22T10:22:20;93338.34;;;14.95;40.70
10466;BME280;5280;42.600;23.556;2023-02-22T10:24:57;93331.91;;;14.98;41.06
10466;BME280;5280;42.600;23.556;2023-02-22T10:27:30;93325.22;;;14.94;41.36
10466;BME280;5280;42.600;23.556;2023-02-22T10:30:03;93314.56;;;14.94;41.23
10466;BME280;5280;42.600;23.556;2023-02-22T10:32:38;93317.78;;;15.15;40.52
10466;BME280;5280;42.600;23.556;2023-02-22T10:35:17;93306.28;;;15.15;41.53
10466;BME280;5280;42.600;23.556;2023-02-22T10:37:47;93269.09;;;15.05;39.48
10466;BME280;5280;42.600;23.556;2023-02-22T10:40:21;93305.88;;;15.37;39.76
10466;BME280;5280;42.600;23.556;2023-02-22T10:42:56;93272.53;;;15.15;40.00
10466;BME280;5280;42.600;23.556;2023-02-22T10:45:27;93291.03;;;15.34;39.92
10466;BME280;5280;42.600;23.556;2023-02-22T10:47:58;93289.56;;;15.40;39.13
10466;BME280;5280;42.600;23.556;2023-02-22T10:50:30;93284.88;;;15.34;41.00
10466;BME280;5280;42.600;23.556;2023-02-22T10:52:57;93283.41;;;15.39;39.84
10466;BME280;5280;42.600;23.556;2023-02-22T10:55:24;93281.44;;;15.41;38.83
10466;BME280;5280;42.600;23.556;2023-02-22T10:57:59;93247.97;;;15.21;39.76
10466;BME280;5280;42.600;23.556;2023-02-22T11:00:30;93279.00;;;15.48;39.08
10466;BME280;5280;42.600;23.556;2023-02-22T11:02:58;93269.75;;;15.52;39.47
10466;BME280;5280;42.600;23.556;2023-02-22T11:05:30;93260.66;;;15.45;39.37
10466;BME280;5280;42.600;23.556;2023-02-22T11:08:17;93273.31;;;15.61;38.92
10466;BME280;5280;42.600;23.556;2023-02-22T11:10:49;93265.22;;;15.70;38.44
10466;BME280;5280;42.600;23.556;2023-02-22T11:13:17;93264.84;;;15.83;37.52
10466;BME280;5280;42.600;23.556;2023-02-22T11:15:44;93261.38;;;15.90;36.55
10466;BME280;5280;42.600;23.556;2023-02-22T11:18:23;93253.91;;;15.94;36.45
10466;BME280;5280;42.600;23.556;2023-02-22T11:21:00;93257.94;;;15.98;35.19
10466;BME280;5280;42.600;23.556;2023-02-22T11:23:28;93244.50;;;16.08;35.39
10466;BME280;5280;42.600;23.556;2023-02-22T11:26:05;93241.00;;;16.07;35.69
10466;BME280;5280;42.600;23.556;2023-02-22T11:28:33;93248.06;;;16.16;36.57
10466;BME280;5280;42.600;23.556;2023-02-22T11:31:11;93242.88;;;16.15;36.40
10466;BME280;5280;42.600;23.556;2023-02-22T11:33:39;93156.56;;;15.82;35.50
10466;BME280;5280;42.600;23.556;2023-02-22T11:36:29;93229.16;;;16.35;36.08
10466;BME280;5280;42.600;23.556;2023-02-22T11:38:56;93208.09;;;16.24;35.95
10466;BME280;5280;42.600;23.556;2023-02-22T11:41:26;93227.53;;;16.43;35.78
10466;BME280;5280;42.600;23.556;2023-02-22T11:44:12;93217.69;;;16.43;35.17
10466;BME280;5280;42.600;23.556;2023-02-22T11:46:40;93223.34;;;16.40;33.98
10466;BME280;5280;42.600;23.556;2023-02-22T11:49:11;93214.69;;;16.38;34.10
10466;BME280;5280;42.600;23.556;2023-02-22T11:51:50;93220.88;;;16.47;34.30
10466;BME280;5280;42.600;23.556;2023-02-22T11:54:36;93209.91;;;16.58;33.04
10466;BME280;5280;42.600;23.556;2023-02-22T11:57:14;93209.22;;;16.56;33.13
10466;BME280;5280;42.600;23.556;2023-02-22T11:59:58;93198.56;;;16.56;33.75
10466;BME280;5280;42.600;23.556;2023-02-22T12:02:46;93209.28;;;16.64;32.90
10466;BME280;5280;42.600;23.556;2023-02-22T12:05:30;93186.53;;;16.52;33.36
10466;BME280;5280;42.600;23.556;2023-02-22T12:08:14;93195.97;;;16.72;31.99
10466;BME280;5280;42.600;23.556;2023-02-22T12:10:54;93180.97;;;16.71;32.59
10466;BME280;5280;42.600;23.556;2023-02-22T12:13:39;93192.66;;;16.78;33.04
10466;BME280;5280;42.600;23.556;2023-02-22T12:16:18;93187.34;;;16.78;31.89
10466;BME280;5280;42.600;23.556;2023-02-22T12:19:00;93175.47;;;16.72;32.41
10466;BME280;5280;42.600;23.556;2023-02-22T12:21:32;93190.53;;;16.98;32.01
10466;BME280;5280;42.600;23.556;2023-02-22T12:24:06;93191.19;;;17.00;31.39
10466;BME280;5280;42.600;23.556;2023-02-22T12:26:40;93164.69;;;16.98;31.55
10466;BME280;5280;42.600;23.556;2023-02-22T12:29:12;93182.34;;;16.99;32.15
10466;BME280;5280;42.600;23.556;2023-02-22T12:31:43;93188.19;;;16.95;32.66
10466;BME280;5280;42.600;23.556;2023-02-22T12:34:28;93182.53;;;16.98;33.12
10466;BME280;5280;42.600;23.556;2023-02-22T12:37:02;93182.84;;;16.95;32.63
10466;BME280;5280;42.600;23.556;2023-02-22T12:39:42;93174.69;;;17.04;32.99
10466;BME280;5280;42.600;23.556;2023-02-22T12:42:17;93161.66;;;17.01;32.55
10466;BME280;5280;42.600;23.556;2023-02-22T12:44:51;93172.34;;;17.01;32.10
10466;BME280;5280;42.600;23.556;2023-02-22T12:47:23;93162.34;;;17.03;32.53
10466;BME280;5280;42.600;23.556;2023-02-22T12:49:58;93170.00;;;17.14;33.30
10466;BME280;5280;42.600;23.556;2023-02-22T12:52:37;93169.69;;;17.17;33.69
10466;BME280;5280;42.600;23.556;2023-02-22T12:55:11;93118.75;;;16.95;34.02
10466;BME280;5280;42.600;23.556;2023-02-22T12:57:44;93160.34;;;17.13;33.88
10466;BME280;5280;42.600;23.556;2023-02-22T13:00:16;93157.69;;;17.21;33.70
10466;BME280;5280;42.600;23.556;2023-02-22T13:02:54;93158.50;;;17.22;33.69
10466;BME280;5280;42.600;23.556;2023-02-22T13:05:22;93160.34;;;17.30;34.57
10466;BME280;5280;42.600;23.556;2023-02-22T13:07:58;93160.53;;;17.28;33.94
10466;BME280;5280;42.600;23.556;2023-02-22T13:10:47;93152.84;;;17.25;34.58
10466;BME280;5280;42.600;23.556;2023-02-22T13:13:21;93149.69;;;17.13;35.06
10466;BME280;5280;42.600;23.556;2023-02-22T13:15:59;93159.00;;;17.26;34.33
10466;BME280;5280;42.600;23.556;2023-02-22T13:18:33;93153.00;;;17.23;34.57
10466;BME280;5280;42.600;23.556;2023-02-22T13:21:04;93148.66;;;17.23;34.53
10466;BME280;5280;42.600;23.556;2023-02-22T13:23:40;93149.19;;;17.18;34.86
10466;BME280;5280;42.600;23.556;2023-02-22T13:26:15;93141.13;;;17.10;34.60
10466;BME280;5280;42.600;23.556;2023-02-22T13:28:48;93155.16;;;17.04;34.69
10466;BME280;5280;42.600;23.556;2023-02-22T13:31:26;93140.63;;;16.90;34.75
10466;BME280;5280;42.600;23.556;2023-02-22T13:34:10;93133.94;;;16.94;34.35
10466;BME280;5280;42.600;23.556;2023-02-22T13:36:52;93102.56;;;16.72;34.65
10466;BME280;5280;42.600;23.556;2023-02-22T13:43:00;93142.97;;;16.93;34.72